Creek Data

    Home     View Charts     View Raw Data     Messages

ID Distance Battery Voltage Battery Current Internal Temp Internal Humidity External Temp Solar Input rssi snr Time Stamp Record
66848 11.4 3.67 -5 38 52 40 0 -71 9 02/20/2026 08:45 PM 49677
66847 11.4 3.84 -5 39 52 42 0 -71 8 02/20/2026 08:30 PM 49676
66846 11.4 3.69 -5 40 52 43 0 -71 9 02/20/2026 08:15 PM 49675
66845 11.4 3.69 -5 40 53 43 0.1 -70 8 02/20/2026 08:00 PM 49674
66844 11.3 3.70 -5 40 53 43 0 -70 8 02/20/2026 07:45 PM 49673
66843 11.4 3.85 -5 41 54 44 0.1 -70 8 02/20/2026 07:30 PM 49672
66842 11.4 3.70 -5 41 54 44 0 -71 8 02/20/2026 07:15 PM 49671
66841 11.4 3.70 -5 42 55 45 0 -71 8 02/20/2026 07:00 PM 49670
66840 11.4 3.70 -5 42 56 45 0 -71 8 02/20/2026 06:45 PM 49669
66839 11.3 3.67 -5 43 57 44 0.1 -71 9 02/20/2026 06:30 PM 49668
66838 11.4 3.85 -5 45 57 43 0 -71 9 02/20/2026 06:15 PM 49667
66837 11.4 3.72 -5 48 57 47 1.3 -71 8 02/20/2026 06:00 PM 49666
66836 11.4 3.70 0 51 55 49 4.5 -70 8 02/20/2026 05:45 PM 49665
66835 11.4 3.83 -12 56 52 50 4.5 -71 8 02/20/2026 05:30 PM 49664
66834 11.4 3.93 32 59 49 51 4.5 -71 8 02/20/2026 05:15 PM 49663
66833 11.4 3.84 0 59 49 53 5.1 -71 7 02/20/2026 05:00 PM 49662
66832 11.5 3.84 0 60 48 52 5.1 -70 8 02/20/2026 04:45 PM 49661
66831 11.4 3.84 0 57 50 52 5.1 -71 7 02/20/2026 04:30 PM 49660
66830 11.4 3.84 0 56 51 51 5.1 -71 7 02/20/2026 04:15 PM 49659
66829 11.4 3.85 0 56 51 51 5.1 -71 8 02/20/2026 04:00 PM 49658
66828 11.4 4.08 0 57 50 54 5.1 -71 8 02/20/2026 03:45 PM 49657
66827 11.4 3.95 0 56 51 51 5.1 -70 8 02/20/2026 03:30 PM 49656
66826 11.4 3.85 0 56 52 50 5.1 -71 8 02/20/2026 03:15 PM 49655
66825 11.4 3.85 0 56 51 51 5.1 -70 8 02/20/2026 03:00 PM 49654
66824 11.4 3.85 0 58 50 51 5.1 -71 7 02/20/2026 02:45 PM 49653